sensor_id;sensor_type;location;lat;lon;timestamp;P1;durP1;ratioP1;P2;durP2;ratioP2
13439;SDS011;6792;57.698;11.946;2022-11-15T00:01:31;7.90;;;4.07;;
13439;SDS011;6792;57.698;11.946;2022-11-15T00:04:00;5.30;;;3.57;;
13439;SDS011;6792;57.698;11.946;2022-11-15T00:06:31;6.53;;;4.25;;
13439;SDS011;6792;57.698;11.946;2022-11-15T00:09:00;7.92;;;4.33;;
13439;SDS011;6792;57.698;11.946;2022-11-15T00:11:30;7.47;;;4.27;;
13439;SDS011;6792;57.698;11.946;2022-11-15T00:14:01;6.47;;;4.20;;
13439;SDS011;6792;57.698;11.946;2022-11-15T00:16:33;6.33;;;3.72;;
13439;SDS011;6792;57.698;11.946;2022-11-15T00:19:02;9.03;;;4.80;;
13439;SDS011;6792;57.698;11.946;2022-11-15T00:21:31;7.33;;;3.80;;
13439;SDS011;6792;57.698;11.946;2022-11-15T00:24:03;5.73;;;3.93;;
13439;SDS011;6792;57.698;11.946;2022-11-15T00:26:33;5.10;;;3.67;;
13439;SDS011;6792;57.698;11.946;2022-11-15T00:29:03;5.07;;;4.10;;
13439;SDS011;6792;57.698;11.946;2022-11-15T00:31:34;5.20;;;4.03;;
13439;SDS011;6792;57.698;11.946;2022-11-15T00:34:03;5.92;;;3.50;;
13439;SDS011;6792;57.698;11.946;2022-11-15T00:36:33;8.48;;;4.08;;
13439;SDS011;6792;57.698;11.946;2022-11-15T00:39:03;6.00;;;3.97;;
13439;SDS011;6792;57.698;11.946;2022-11-15T00:41:33;5.27;;;4.03;;
13439;SDS011;6792;57.698;11.946;2022-11-15T00:44:03;7.90;;;4.17;;
13439;SDS011;6792;57.698;11.946;2022-11-15T00:46:33;6.53;;;4.30;;
13439;SDS011;6792;57.698;11.946;2022-11-15T00:49:02;4.77;;;3.73;;
13439;SDS011;6792;57.698;11.946;2022-11-15T00:51:31;6.85;;;4.10;;
13439;SDS011;6792;57.698;11.946;2022-11-15T00:54:03;6.87;;;4.20;;
13439;SDS011;6792;57.698;11.946;2022-11-15T00:56:34;4.78;;;3.85;;
13439;SDS011;6792;57.698;11.946;2022-11-15T00:59:03;7.83;;;4.13;;
13439;SDS011;6792;57.698;11.946;2022-11-15T01:01:32;6.90;;;4.20;;
13439;SDS011;6792;57.698;11.946;2022-11-15T01:04:01;6.20;;;4.33;;
13439;SDS011;6792;57.698;11.946;2022-11-15T01:06:32;4.83;;;3.47;;
13439;SDS011;6792;57.698;11.946;2022-11-15T01:09:01;7.70;;;4.20;;
13439;SDS011;6792;57.698;11.946;2022-11-15T01:11:30;5.23;;;4.50;;
13439;SDS011;6792;57.698;11.946;2022-11-15T01:13:59;6.90;;;3.90;;
13439;SDS011;6792;57.698;11.946;2022-11-15T01:16:29;5.80;;;4.47;;
13439;SDS011;6792;57.698;11.946;2022-11-15T01:18:59;6.53;;;4.00;;
13439;SDS011;6792;57.698;11.946;2022-11-15T01:21:28;7.08;;;4.40;;
13439;SDS011;6792;57.698;11.946;2022-11-15T01:23:57;6.10;;;3.77;;
13439;SDS011;6792;57.698;11.946;2022-11-15T01:26:26;6.27;;;4.00;;
13439;SDS011;6792;57.698;11.946;2022-11-15T01:28:55;6.33;;;4.53;;
13439;SDS011;6792;57.698;11.946;2022-11-15T01:31:24;5.87;;;3.98;;
13439;SDS011;6792;57.698;11.946;2022-11-15T01:33:53;5.12;;;4.08;;
13439;SDS011;6792;57.698;11.946;2022-11-15T01:36:22;6.40;;;4.25;;
13439;SDS011;6792;57.698;11.946;2022-11-15T01:38:53;6.47;;;4.40;;
13439;SDS011;6792;57.698;11.946;2022-11-15T01:41:23;10.20;;;4.10;;
13439;SDS011;6792;57.698;11.946;2022-11-15T01:43:54;6.37;;;3.77;;
13439;SDS011;6792;57.698;11.946;2022-11-15T01:46:27;6.25;;;4.03;;
13439;SDS011;6792;57.698;11.946;2022-11-15T01:48:59;5.97;;;4.35;;
13439;SDS011;6792;57.698;11.946;2022-11-15T01:51:30;6.27;;;4.67;;
13439;SDS011;6792;57.698;11.946;2022-11-15T01:54:00;7.35;;;4.42;;
13439;SDS011;6792;57.698;11.946;2022-11-15T01:56:36;4.73;;;3.70;;
13439;SDS011;6792;57.698;11.946;2022-11-15T01:59:08;8.13;;;4.10;;
13439;SDS011;6792;57.698;11.946;2022-11-15T02:01:38;8.60;;;4.30;;
13439;SDS011;6792;57.698;11.946;2022-11-15T02:04:09;5.90;;;4.12;;
13439;SDS011;6792;57.698;11.946;2022-11-15T02:06:40;8.73;;;4.97;;
13439;SDS011;6792;57.698;11.946;2022-11-15T02:09:10;6.90;;;4.40;;
13439;SDS011;6792;57.698;11.946;2022-11-15T02:11:40;6.73;;;4.13;;
13439;SDS011;6792;57.698;11.946;2022-11-15T02:14:10;6.73;;;4.27;;
13439;SDS011;6792;57.698;11.946;2022-11-15T02:16:43;8.58;;;4.55;;
13439;SDS011;6792;57.698;11.946;2022-11-15T02:19:16;6.92;;;3.90;;
13439;SDS011;6792;57.698;11.946;2022-11-15T02:21:50;7.43;;;4.20;;
13439;SDS011;6792;57.698;11.946;2022-11-15T02:24:29;6.90;;;4.37;;
13439;SDS011;6792;57.698;11.946;2022-11-15T02:30:17;7.97;;;4.45;;
13439;SDS011;6792;57.698;11.946;2022-11-15T02:32:58;7.40;;;4.33;;
13439;SDS011;6792;57.698;11.946;2022-11-15T02:35:33;7.53;;;4.30;;
13439;SDS011;6792;57.698;11.946;2022-11-15T02:38:05;6.12;;;4.33;;
13439;SDS011;6792;57.698;11.946;2022-11-15T02:40:38;7.13;;;4.07;;
13439;SDS011;6792;57.698;11.946;2022-11-15T02:43:10;7.17;;;4.50;;
13439;SDS011;6792;57.698;11.946;2022-11-15T02:46:00;5.80;;;4.17;;
13439;SDS011;6792;57.698;11.946;2022-11-15T02:48:33;7.13;;;4.30;;
13439;SDS011;6792;57.698;11.946;2022-11-15T02:51:03;8.93;;;4.87;;
13439;SDS011;6792;57.698;11.946;2022-11-15T02:53:33;5.95;;;4.62;;
13439;SDS011;6792;57.698;11.946;2022-11-15T02:56:04;7.67;;;4.47;;
13439;SDS011;6792;57.698;11.946;2022-11-15T02:58:45;6.17;;;4.20;;
13439;SDS011;6792;57.698;11.946;2022-11-15T03:01:21;5.97;;;4.22;;
13439;SDS011;6792;57.698;11.946;2022-11-15T03:03:57;7.70;;;4.53;;
13439;SDS011;6792;57.698;11.946;2022-11-15T03:06:34;8.83;;;4.47;;
13439;SDS011;6792;57.698;11.946;2022-11-15T03:09:06;7.10;;;4.00;;
13439;SDS011;6792;57.698;11.946;2022-11-15T03:11:38;8.07;;;4.73;;
13439;SDS011;6792;57.698;11.946;2022-11-15T03:14:13;5.37;;;4.23;;
13439;SDS011;6792;57.698;11.946;2022-11-15T03:16:45;8.47;;;5.30;;
13439;SDS011;6792;57.698;11.946;2022-11-15T03:19:19;6.85;;;4.72;;
13439;SDS011;6792;57.698;11.946;2022-11-15T03:21:49;6.93;;;4.87;;
13439;SDS011;6792;57.698;11.946;2022-11-15T03:24:24;5.97;;;4.20;;
13439;SDS011;6792;57.698;11.946;2022-11-15T03:26:56;7.73;;;5.23;;
13439;SDS011;6792;57.698;11.946;2022-11-15T03:29:27;6.97;;;4.47;;
13439;SDS011;6792;57.698;11.946;2022-11-15T03:32:01;7.93;;;5.00;;
13439;SDS011;6792;57.698;11.946;2022-11-15T03:34:33;8.03;;;4.73;;
13439;SDS011;6792;57.698;11.946;2022-11-15T03:37:05;8.63;;;5.20;;
13439;SDS011;6792;57.698;11.946;2022-11-15T03:39:35;9.20;;;5.10;;
13439;SDS011;6792;57.698;11.946;2022-11-15T03:42:06;8.07;;;5.43;;
13439;SDS011;6792;57.698;11.946;2022-11-15T03:44:40;9.07;;;5.67;;
13439;SDS011;6792;57.698;11.946;2022-11-15T03:47:12;7.10;;;5.27;;
13439;SDS011;6792;57.698;11.946;2022-11-15T03:49:46;6.80;;;4.73;;
13439;SDS011;6792;57.698;11.946;2022-11-15T03:52:19;6.83;;;5.10;;
13439;SDS011;6792;57.698;11.946;2022-11-15T03:54:49;8.60;;;5.57;;
13439;SDS011;6792;57.698;11.946;2022-11-15T03:57:20;7.10;;;5.30;;
13439;SDS011;6792;57.698;11.946;2022-11-15T03:59:49;8.47;;;5.30;;
13439;SDS011;6792;57.698;11.946;2022-11-15T04:02:18;7.97;;;5.00;;
13439;SDS011;6792;57.698;11.946;2022-11-15T04:04:47;6.87;;;4.97;;
13439;SDS011;6792;57.698;11.946;2022-11-15T04:07:16;7.80;;;5.03;;
13439;SDS011;6792;57.698;11.946;2022-11-15T04:09:45;7.70;;;5.60;;
13439;SDS011;6792;57.698;11.946;2022-11-15T04:12:29;7.73;;;5.60;;
13439;SDS011;6792;57.698;11.946;2022-11-15T04:15:00;9.85;;;6.85;;
13439;SDS011;6792;57.698;11.946;2022-11-15T04:17:35;12.00;;;6.77;;
13439;SDS011;6792;57.698;11.946;2022-11-15T04:20:06;8.23;;;6.43;;
13439;SDS011;6792;57.698;11.946;2022-11-15T04:22:56;10.07;;;6.07;;
13439;SDS011;6792;57.698;11.946;2022-11-15T04:25:44;7.17;;;5.73;;
13439;SDS011;6792;57.698;11.946;2022-11-15T04:28:14;10.57;;;6.10;;
13439;SDS011;6792;57.698;11.946;2022-11-15T04:30:43;8.43;;;5.07;;
13439;SDS011;6792;57.698;11.946;2022-11-15T04:33:13;10.07;;;5.50;;
13439;SDS011;6792;57.698;11.946;2022-11-15T04:35:42;9.73;;;5.60;;
13439;SDS011;6792;57.698;11.946;2022-11-15T04:38:12;8.80;;;5.63;;
13439;SDS011;6792;57.698;11.946;2022-11-15T04:40:41;8.50;;;5.60;;
13439;SDS011;6792;57.698;11.946;2022-11-15T04:43:10;8.87;;;6.00;;
13439;SDS011;6792;57.698;11.946;2022-11-15T04:45:39;9.90;;;6.50;;
13439;SDS011;6792;57.698;11.946;2022-11-15T04:48:08;9.40;;;5.67;;
13439;SDS011;6792;57.698;11.946;2022-11-15T04:50:37;9.23;;;6.07;;
13439;SDS011;6792;57.698;11.946;2022-11-15T04:53:06;8.10;;;5.27;;
13439;SDS011;6792;57.698;11.946;2022-11-15T04:55:35;8.20;;;5.57;;
13439;SDS011;6792;57.698;11.946;2022-11-15T04:58:04;9.50;;;5.43;;
13439;SDS011;6792;57.698;11.946;2022-11-15T05:00:33;10.53;;;5.20;;
13439;SDS011;6792;57.698;11.946;2022-11-15T05:03:02;8.67;;;5.50;;
13439;SDS011;6792;57.698;11.946;2022-11-15T05:05:50;8.38;;;5.05;;
13439;SDS011;6792;57.698;11.946;2022-11-15T05:08:19;7.20;;;5.07;;
13439;SDS011;6792;57.698;11.946;2022-11-15T05:10:51;10.53;;;5.07;;
13439;SDS011;6792;57.698;11.946;2022-11-15T05:13:20;8.63;;;5.20;;
13439;SDS011;6792;57.698;11.946;2022-11-15T05:15:49;7.53;;;5.17;;
13439;SDS011;6792;57.698;11.946;2022-11-15T05:18:18;9.00;;;5.53;;
13439;SDS011;6792;57.698;11.946;2022-11-15T05:20:47;8.10;;;5.20;;
13439;SDS011;6792;57.698;11.946;2022-11-15T05:23:16;7.37;;;4.90;;
13439;SDS011;6792;57.698;11.946;2022-11-15T05:25:45;6.47;;;4.40;;
13439;SDS011;6792;57.698;11.946;2022-11-15T05:28:14;7.40;;;5.00;;
13439;SDS011;6792;57.698;11.946;2022-11-15T05:30:43;9.37;;;4.80;;
13439;SDS011;6792;57.698;11.946;2022-11-15T05:33:12;7.90;;;4.93;;
13439;SDS011;6792;57.698;11.946;2022-11-15T05:35:42;9.47;;;5.10;;
13439;SDS011;6792;57.698;11.946;2022-11-15T05:38:15;7.37;;;5.13;;
13439;SDS011;6792;57.698;11.946;2022-11-15T05:40:44;9.43;;;5.27;;
13439;SDS011;6792;57.698;11.946;2022-11-15T05:43:13;9.60;;;5.27;;
13439;SDS011;6792;57.698;11.946;2022-11-15T05:45:43;11.03;;;5.47;;
13439;SDS011;6792;57.698;11.946;2022-11-15T05:48:12;8.40;;;4.90;;
13439;SDS011;6792;57.698;11.946;2022-11-15T05:50:42;8.10;;;5.10;;
13439;SDS011;6792;57.698;11.946;2022-11-15T05:53:14;11.20;;;4.67;;
13439;SDS011;6792;57.698;11.946;2022-11-15T05:55:45;7.73;;;4.73;;
13439;SDS011;6792;57.698;11.946;2022-11-15T05:58:14;8.07;;;4.57;;
13439;SDS011;6792;57.698;11.946;2022-11-15T06:00:43;6.90;;;4.77;;
13439;SDS011;6792;57.698;11.946;2022-11-15T06:03:13;8.47;;;5.40;;
13439;SDS011;6792;57.698;11.946;2022-11-15T06:05:42;7.77;;;5.00;;
13439;SDS011;6792;57.698;11.946;2022-11-15T06:08:11;10.20;;;5.43;;
13439;SDS011;6792;57.698;11.946;2022-11-15T06:10:39;8.37;;;5.40;;
13439;SDS011;6792;57.698;11.946;2022-11-15T06:13:08;6.97;;;4.60;;
13439;SDS011;6792;57.698;11.946;2022-11-15T06:15:37;10.07;;;4.80;;
13439;SDS011;6792;57.698;11.946;2022-11-15T06:18:09;5.93;;;4.30;;
13439;SDS011;6792;57.698;11.946;2022-11-15T06:20:39;6.23;;;4.80;;
13439;SDS011;6792;57.698;11.946;2022-11-15T06:23:08;9.27;;;4.83;;
13439;SDS011;6792;57.698;11.946;2022-11-15T06:25:36;7.03;;;4.70;;
13439;SDS011;6792;57.698;11.946;2022-11-15T06:28:05;7.43;;;4.63;;
13439;SDS011;6792;57.698;11.946;2022-11-15T06:30:35;6.87;;;4.53;;
13439;SDS011;6792;57.698;11.946;2022-11-15T06:33:04;7.90;;;4.60;;
13439;SDS011;6792;57.698;11.946;2022-11-15T06:35:35;7.13;;;4.83;;
13439;SDS011;6792;57.698;11.946;2022-11-15T06:38:05;7.87;;;5.00;;
13439;SDS011;6792;57.698;11.946;2022-11-15T06:40:35;9.27;;;4.97;;
13439;SDS011;6792;57.698;11.946;2022-11-15T06:43:05;7.20;;;4.40;;
13439;SDS011;6792;57.698;11.946;2022-11-15T06:45:34;10.63;;;4.50;;
13439;SDS011;6792;57.698;11.946;2022-11-15T06:48:05;8.40;;;4.73;;
13439;SDS011;6792;57.698;11.946;2022-11-15T06:50:34;7.20;;;4.63;;
13439;SDS011;6792;57.698;11.946;2022-11-15T06:53:03;6.27;;;4.07;;
13439;SDS011;6792;57.698;11.946;2022-11-15T06:55:32;6.97;;;4.30;;
13439;SDS011;6792;57.698;11.946;2022-11-15T06:58:01;8.10;;;4.67;;
13439;SDS011;6792;57.698;11.946;2022-11-15T07:00:33;8.67;;;4.00;;
13439;SDS011;6792;57.698;11.946;2022-11-15T07:03:02;9.37;;;4.47;;
13439;SDS011;6792;57.698;11.946;2022-11-15T07:05:31;7.17;;;4.53;;
13439;SDS011;6792;57.698;11.946;2022-11-15T07:08:01;8.20;;;4.30;;
13439;SDS011;6792;57.698;11.946;2022-11-15T07:10:30;8.53;;;4.90;;
13439;SDS011;6792;57.698;11.946;2022-11-15T07:12:59;7.53;;;4.57;;
13439;SDS011;6792;57.698;11.946;2022-11-15T07:15:28;7.53;;;4.33;;
13439;SDS011;6792;57.698;11.946;2022-11-15T07:18:00;7.50;;;4.10;;
13439;SDS011;6792;57.698;11.946;2022-11-15T07:20:31;7.00;;;4.17;;
13439;SDS011;6792;57.698;11.946;2022-11-15T07:23:00;5.90;;;3.90;;
13439;SDS011;6792;57.698;11.946;2022-11-15T07:25:30;6.80;;;3.70;;
13439;SDS011;6792;57.698;11.946;2022-11-15T07:27:59;5.57;;;3.67;;
13439;SDS011;6792;57.698;11.946;2022-11-15T07:30:29;9.10;;;3.67;;
13439;SDS011;6792;57.698;11.946;2022-11-15T07:32:59;5.53;;;3.27;;
13439;SDS011;6792;57.698;11.946;2022-11-15T07:35:30;7.27;;;3.83;;
13439;SDS011;6792;57.698;11.946;2022-11-15T07:38:03;13.03;;;4.23;;
13439;SDS011;6792;57.698;11.946;2022-11-15T07:40:35;5.97;;;3.43;;
13439;SDS011;6792;57.698;11.946;2022-11-15T07:43:05;5.40;;;3.33;;
13439;SDS011;6792;57.698;11.946;2022-11-15T07:45:39;8.43;;;3.63;;
13439;SDS011;6792;57.698;11.946;2022-11-15T07:48:08;5.97;;;3.63;;
13439;SDS011;6792;57.698;11.946;2022-11-15T07:50:37;8.23;;;3.77;;
13439;SDS011;6792;57.698;11.946;2022-11-15T07:53:09;8.77;;;3.83;;
13439;SDS011;6792;57.698;11.946;2022-11-15T07:55:39;5.87;;;3.90;;
13439;SDS011;6792;57.698;11.946;2022-11-15T07:58:09;7.57;;;4.23;;
13439;SDS011;6792;57.698;11.946;2022-11-15T08:00:39;8.73;;;4.37;;
13439;SDS011;6792;57.698;11.946;2022-11-15T08:03:09;6.20;;;3.97;;
13439;SDS011;6792;57.698;11.946;2022-11-15T08:05:39;5.57;;;3.93;;
13439;SDS011;6792;57.698;11.946;2022-11-15T08:08:10;6.20;;;3.80;;
13439;SDS011;6792;57.698;11.946;2022-11-15T08:10:39;6.60;;;4.10;;
13439;SDS011;6792;57.698;11.946;2022-11-15T08:13:09;5.93;;;3.53;;
13439;SDS011;6792;57.698;11.946;2022-11-15T08:15:38;9.23;;;4.20;;
13439;SDS011;6792;57.698;11.946;2022-11-15T08:18:10;6.87;;;3.70;;
13439;SDS011;6792;57.698;11.946;2022-11-15T08:20:41;6.03;;;3.53;;
13439;SDS011;6792;57.698;11.946;2022-11-15T08:23:11;5.27;;;3.40;;
13439;SDS011;6792;57.698;11.946;2022-11-15T08:25:40;5.73;;;3.83;;
13439;SDS011;6792;57.698;11.946;2022-11-15T08:28:09;6.07;;;3.73;;
13439;SDS011;6792;57.698;11.946;2022-11-15T08:30:39;8.80;;;3.77;;
13439;SDS011;6792;57.698;11.946;2022-11-15T08:33:12;5.97;;;3.53;;
13439;SDS011;6792;57.698;11.946;2022-11-15T08:35:41;5.73;;;3.53;;
13439;SDS011;6792;57.698;11.946;2022-11-15T08:38:11;9.63;;;3.80;;
13439;SDS011;6792;57.698;11.946;2022-11-15T08:40:40;4.73;;;3.50;;
13439;SDS011;6792;57.698;11.946;2022-11-15T08:43:09;9.47;;;4.57;;
13439;SDS011;6792;57.698;11.946;2022-11-15T08:45:38;6.57;;;3.93;;
13439;SDS011;6792;57.698;11.946;2022-11-15T08:48:07;6.37;;;3.60;;
13439;SDS011;6792;57.698;11.946;2022-11-15T08:50:36;5.67;;;3.50;;
13439;SDS011;6792;57.698;11.946;2022-11-15T08:53:05;7.87;;;4.17;;
13439;SDS011;6792;57.698;11.946;2022-11-15T08:55:36;6.23;;;3.90;;
13439;SDS011;6792;57.698;11.946;2022-11-15T08:58:06;8.07;;;3.80;;
13439;SDS011;6792;57.698;11.946;2022-11-15T09:00:35;6.60;;;3.70;;
13439;SDS011;6792;57.698;11.946;2022-11-15T09:03:04;6.87;;;3.80;;
13439;SDS011;6792;57.698;11.946;2022-11-15T09:05:36;8.03;;;3.65;;
13439;SDS011;6792;57.698;11.946;2022-11-15T09:08:05;5.83;;;3.83;;
13439;SDS011;6792;57.698;11.946;2022-11-15T09:10:34;7.23;;;3.90;;
13439;SDS011;6792;57.698;11.946;2022-11-15T09:13:03;8.57;;;3.80;;
13439;SDS011;6792;57.698;11.946;2022-11-15T09:15:32;9.57;;;3.80;;
13439;SDS011;6792;57.698;11.946;2022-11-15T09:18:01;5.97;;;4.07;;
13439;SDS011;6792;57.698;11.946;2022-11-15T09:20:30;5.20;;;3.63;;
13439;SDS011;6792;57.698;11.946;2022-11-15T09:22:59;5.83;;;3.70;;
13439;SDS011;6792;57.698;11.946;2022-11-15T09:25:32;5.97;;;3.50;;
13439;SDS011;6792;57.698;11.946;2022-11-15T09:28:03;5.37;;;3.80;;
13439;SDS011;6792;57.698;11.946;2022-11-15T09:30:34;6.73;;;4.00;;
13439;SDS011;6792;57.698;11.946;2022-11-15T09:33:06;8.00;;;3.30;;
13439;SDS011;6792;57.698;11.946;2022-11-15T09:35:35;5.53;;;3.30;;
13439;SDS011;6792;57.698;11.946;2022-11-15T09:38:04;7.83;;;4.10;;
13439;SDS011;6792;57.698;11.946;2022-11-15T09:40:35;5.07;;;3.23;;
13439;SDS011;6792;57.698;11.946;2022-11-15T09:43:11;6.50;;;3.30;;
13439;SDS011;6792;57.698;11.946;2022-11-15T09:45:50;6.10;;;3.50;;
13439;SDS011;6792;57.698;11.946;2022-11-15T09:48:31;6.27;;;3.37;;
13439;SDS011;6792;57.698;11.946;2022-11-15T09:51:13;6.00;;;3.50;;
13439;SDS011;6792;57.698;11.946;2022-11-15T09:53:48;7.73;;;3.40;;
13439;SDS011;6792;57.698;11.946;2022-11-15T09:56:20;5.17;;;3.60;;
13439;SDS011;6792;57.698;11.946;2022-11-15T09:58:53;7.80;;;3.90;;
13439;SDS011;6792;57.698;11.946;2022-11-15T10:01:28;5.07;;;3.43;;
13439;SDS011;6792;57.698;11.946;2022-11-15T10:03:58;5.90;;;3.60;;
13439;SDS011;6792;57.698;11.946;2022-11-15T10:06:27;8.90;;;4.23;;
13439;SDS011;6792;57.698;11.946;2022-11-15T10:08:59;5.07;;;3.73;;
13439;SDS011;6792;57.698;11.946;2022-11-15T10:11:31;8.10;;;3.73;;
13439;SDS011;6792;57.698;11.946;2022-11-15T10:14:05;5.50;;;3.67;;
13439;SDS011;6792;57.698;11.946;2022-11-15T10:19:41;9.43;;;3.67;;
13439;SDS011;6792;57.698;11.946;2022-11-15T10:22:17;4.80;;;3.67;;
13439;SDS011;6792;57.698;11.946;2022-11-15T10:24:58;5.83;;;3.93;;
13439;SDS011;6792;57.698;11.946;2022-11-15T10:27:30;5.83;;;4.23;;
13439;SDS011;6792;57.698;11.946;2022-11-15T10:30:02;5.60;;;3.70;;
13439;SDS011;6792;57.698;11.946;2022-11-15T10:32:37;5.00;;;3.30;;
13439;SDS011;6792;57.698;11.946;2022-11-15T10:35:22;5.70;;;3.27;;
13439;SDS011;6792;57.698;11.946;2022-11-15T10:37:57;6.83;;;4.10;;
13439;SDS011;6792;57.698;11.946;2022-11-15T10:40:34;6.87;;;3.87;;
13439;SDS011;6792;57.698;11.946;2022-11-15T10:43:05;5.45;;;3.50;;
13439;SDS011;6792;57.698;11.946;2022-11-15T10:45:41;5.73;;;3.50;;
13439;SDS011;6792;57.698;11.946;2022-11-15T10:48:21;6.37;;;3.37;;
13439;SDS011;6792;57.698;11.946;2022-11-15T10:50:52;8.77;;;4.27;;
13439;SDS011;6792;57.698;11.946;2022-11-15T10:53:30;7.70;;;3.43;;
13439;SDS011;6792;57.698;11.946;2022-11-15T10:56:04;6.17;;;3.30;;
13439;SDS011;6792;57.698;11.946;2022-11-15T10:58:37;5.75;;;3.42;;
13439;SDS011;6792;57.698;11.946;2022-11-15T11:01:15;6.13;;;3.50;;
13439;SDS011;6792;57.698;11.946;2022-11-15T11:03:57;6.70;;;3.50;;
13439;SDS011;6792;57.698;11.946;2022-11-15T11:06:26;4.83;;;3.30;;
13439;SDS011;6792;57.698;11.946;2022-11-15T11:08:56;5.23;;;3.03;;
13439;SDS011;6792;57.698;11.946;2022-11-15T11:11:43;5.27;;;3.47;;
13439;SDS011;6792;57.698;11.946;2022-11-15T11:14:13;6.03;;;3.40;;
13439;SDS011;6792;57.698;11.946;2022-11-15T11:16:46;9.00;;;3.10;;
13439;SDS011;6792;57.698;11.946;2022-11-15T11:19:28;6.27;;;3.73;;
13439;SDS011;6792;57.698;11.946;2022-11-15T11:22:06;7.17;;;3.30;;
13439;SDS011;6792;57.698;11.946;2022-11-15T11:24:41;6.47;;;3.47;;
13439;SDS011;6792;57.698;11.946;2022-11-15T11:27:20;7.23;;;3.93;;
13439;SDS011;6792;57.698;11.946;2022-11-15T11:30:00;5.60;;;3.77;;
13439;SDS011;6792;57.698;11.946;2022-11-15T11:32:38;6.40;;;3.70;;
13439;SDS011;6792;57.698;11.946;2022-11-15T11:35:17;6.43;;;3.50;;
13439;SDS011;6792;57.698;11.946;2022-11-15T11:37:50;7.60;;;4.00;;
13439;SDS011;6792;57.698;11.946;2022-11-15T11:40:24;5.73;;;3.50;;
13439;SDS011;6792;57.698;11.946;2022-11-15T11:42:59;5.00;;;3.10;;
13439;SDS011;6792;57.698;11.946;2022-11-15T11:45:39;7.50;;;3.70;;
13439;SDS011;6792;57.698;11.946;2022-11-15T11:48:29;7.57;;;3.10;;
13439;SDS011;6792;57.698;11.946;2022-11-15T11:51:05;4.57;;;3.10;;
13439;SDS011;6792;57.698;11.946;2022-11-15T11:53:39;5.33;;;3.03;;
13439;SDS011;6792;57.698;11.946;2022-11-15T11:56:13;3.83;;;2.50;;
13439;SDS011;6792;57.698;11.946;2022-11-15T11:58:45;4.70;;;2.90;;
13439;SDS011;6792;57.698;11.946;2022-11-15T12:01:16;4.53;;;2.73;;
13439;SDS011;6792;57.698;11.946;2022-11-15T12:03:50;3.77;;;2.90;;
13439;SDS011;6792;57.698;11.946;2022-11-15T12:06:35;5.97;;;3.10;;
13439;SDS011;6792;57.698;11.946;2022-11-15T12:09:23;5.80;;;3.00;;
13439;SDS011;6792;57.698;11.946;2022-11-15T12:11:58;5.70;;;2.77;;
13439;SDS011;6792;57.698;11.946;2022-11-15T12:14:31;3.67;;;2.50;;
13439;SDS011;6792;57.698;11.946;2022-11-15T12:17:04;3.47;;;2.20;;
13439;SDS011;6792;57.698;11.946;2022-11-15T12:19:35;3.40;;;2.22;;
13439;SDS011;6792;57.698;11.946;2022-11-15T12:22:10;3.03;;;2.30;;
13439;SDS011;6792;57.698;11.946;2022-11-15T12:24:38;5.57;;;2.30;;
13439;SDS011;6792;57.698;11.946;2022-11-15T12:27:13;3.87;;;2.17;;
13439;SDS011;6792;57.698;11.946;2022-11-15T12:29:45;3.63;;;2.50;;
13439;SDS011;6792;57.698;11.946;2022-11-15T12:32:21;5.47;;;2.33;;
13439;SDS011;6792;57.698;11.946;2022-11-15T12:34:53;5.92;;;3.10;;
13439;SDS011;6792;57.698;11.946;2022-11-15T12:37:34;3.55;;;2.58;;
13439;SDS011;6792;57.698;11.946;2022-11-15T12:40:27;4.97;;;2.15;;
13439;SDS011;6792;57.698;11.946;2022-11-15T12:43:02;2.77;;;2.20;;
13439;SDS011;6792;57.698;11.946;2022-11-15T12:45:52;5.23;;;2.90;;
13439;SDS011;6792;57.698;11.946;2022-11-15T12:51:16;4.70;;;1.87;;
13439;SDS011;6792;57.698;11.946;2022-11-15T12:53:47;4.10;;;2.08;;
13439;SDS011;6792;57.698;11.946;2022-11-15T12:56:22;5.13;;;2.40;;
13439;SDS011;6792;57.698;11.946;2022-11-15T12:58:53;4.00;;;2.42;;
13439;SDS011;6792;57.698;11.946;2022-11-15T13:04:25;4.07;;;2.53;;
13439;SDS011;6792;57.698;11.946;2022-11-15T13:06:57;3.27;;;2.08;;
13439;SDS011;6792;57.698;11.946;2022-11-15T13:15:34;3.53;;;2.03;;
13439;SDS011;6792;57.698;11.946;2022-11-15T13:21:00;2.20;;;1.70;;
13439;SDS011;6792;57.698;11.946;2022-11-15T13:23:34;3.30;;;2.00;;
13439;SDS011;6792;57.698;11.946;2022-11-15T13:26:08;1.90;;;1.60;;
13439;SDS011;6792;57.698;11.946;2022-11-15T13:28:43;2.73;;;1.63;;
13439;SDS011;6792;57.698;11.946;2022-11-15T13:31:21;2.17;;;1.60;;
13439;SDS011;6792;57.698;11.946;2022-11-15T13:33:59;2.77;;;1.42;;
13439;SDS011;6792;57.698;11.946;2022-11-15T13:36:31;1.33;;;1.07;;
13439;SDS011;6792;57.698;11.946;2022-11-15T13:39:04;1.43;;;1.03;;
13439;SDS011;6792;57.698;11.946;2022-11-15T13:41:35;2.47;;;1.17;;
13439;SDS011;6792;57.698;11.946;2022-11-15T13:44:18;1.17;;;1.07;;
13439;SDS011;6792;57.698;11.946;2022-11-15T13:46:48;2.73;;;1.33;;
13439;SDS011;6792;57.698;11.946;2022-11-15T13:49:22;1.80;;;1.10;;
13439;SDS011;6792;57.698;11.946;2022-11-15T13:51:57;1.30;;;1.20;;
13439;SDS011;6792;57.698;11.946;2022-11-15T13:54:29;2.10;;;1.20;;
13439;SDS011;6792;57.698;11.946;2022-11-15T13:57:01;1.87;;;1.40;;
13439;SDS011;6792;57.698;11.946;2022-11-15T13:59:33;1.67;;;1.20;;
13439;SDS011;6792;57.698;11.946;2022-11-15T14:02:10;2.40;;;1.23;;
13439;SDS011;6792;57.698;11.946;2022-11-15T14:04:44;1.43;;;1.10;;
13439;SDS011;6792;57.698;11.946;2022-11-15T14:07:16;1.52;;;1.05;;
13439;SDS011;6792;57.698;11.946;2022-11-15T14:09:47;1.60;;;1.30;;
13439;SDS011;6792;57.698;11.946;2022-11-15T14:12:24;2.87;;;1.50;;
13439;SDS011;6792;57.698;11.946;2022-11-15T14:15:02;2.53;;;1.50;;
13439;SDS011;6792;57.698;11.946;2022-11-15T14:17:46;2.63;;;1.20;;
13439;SDS011;6792;57.698;11.946;2022-11-15T14:20:29;1.70;;;1.30;;
13439;SDS011;6792;57.698;11.946;2022-11-15T14:23:00;1.67;;;1.17;;
13439;SDS011;6792;57.698;11.946;2022-11-15T14:25:31;4.27;;;2.23;;
13439;SDS011;6792;57.698;11.946;2022-11-15T14:28:09;2.20;;;1.60;;
13439;SDS011;6792;57.698;11.946;2022-11-15T14:30:45;1.23;;;0.90;;
13439;SDS011;6792;57.698;11.946;2022-11-15T14:33:20;0.60;;;0.60;;
13439;SDS011;6792;57.698;11.946;2022-11-15T14:35:52;3.73;;;0.80;;
13439;SDS011;6792;57.698;11.946;2022-11-15T14:38:22;1.60;;;0.90;;
13439;SDS011;6792;57.698;11.946;2022-11-15T14:40:51;0.77;;;0.67;;
13439;SDS011;6792;57.698;11.946;2022-11-15T14:43:22;0.57;;;0.50;;
13439;SDS011;6792;57.698;11.946;2022-11-15T14:45:51;0.67;;;0.67;;
13439;SDS011;6792;57.698;11.946;2022-11-15T14:48:19;1.03;;;0.80;;
13439;SDS011;6792;57.698;11.946;2022-11-15T14:50:49;1.10;;;1.00;;
13439;SDS011;6792;57.698;11.946;2022-11-15T14:53:18;0.93;;;0.80;;
13439;SDS011;6792;57.698;11.946;2022-11-15T14:55:48;0.90;;;0.70;;
13439;SDS011;6792;57.698;11.946;2022-11-15T14:58:17;0.80;;;0.70;;
13439;SDS011;6792;57.698;11.946;2022-11-15T15:00:46;2.17;;;0.63;;
13439;SDS011;6792;57.698;11.946;2022-11-15T15:03:16;0.53;;;0.50;;
13439;SDS011;6792;57.698;11.946;2022-11-15T15:08:35;1.67;;;0.73;;
13439;SDS011;6792;57.698;11.946;2022-11-15T15:11:04;1.63;;;0.60;;
13439;SDS011;6792;57.698;11.946;2022-11-15T15:13:36;1.80;;;0.80;;
13439;SDS011;6792;57.698;11.946;2022-11-15T15:16:06;0.93;;;0.80;;
13439;SDS011;6792;57.698;11.946;2022-11-15T15:18:35;2.03;;;1.10;;
13439;SDS011;6792;57.698;11.946;2022-11-15T15:21:12;0.90;;;0.60;;
13439;SDS011;6792;57.698;11.946;2022-11-15T15:23:42;1.87;;;0.77;;
13439;SDS011;6792;57.698;11.946;2022-11-15T15:26:11;1.10;;;0.90;;
13439;SDS011;6792;57.698;11.946;2022-11-15T15:28:40;1.80;;;0.70;;
13439;SDS011;6792;57.698;11.946;2022-11-15T15:31:10;0.50;;;0.50;;
13439;SDS011;6792;57.698;11.946;2022-11-15T15:33:39;1.20;;;0.53;;
13439;SDS011;6792;57.698;11.946;2022-11-15T15:36:10;1.17;;;0.60;;
13439;SDS011;6792;57.698;11.946;2022-11-15T15:38:40;1.43;;;0.60;;
13439;SDS011;6792;57.698;11.946;2022-11-15T15:41:10;1.20;;;0.60;;